sensor_id;sensor_type;location;lat;lon;timestamp;pressure;altitude;pressure_sealevel;temperature;humidity
33781;BME280;20097;50.832;19.100;2023-05-07T00:02:53;98512.75;;;7.06;100.00
33781;BME280;20097;50.832;19.100;2023-05-07T00:07:59;98514.28;;;6.98;100.00
33781;BME280;20097;50.832;19.100;2023-05-07T00:13:03;98522.06;;;6.98;100.00
33781;BME280;20097;50.832;19.100;2023-05-07T00:18:07;98522.75;;;7.01;100.00
33781;BME280;20097;50.832;19.100;2023-05-07T00:23:13;98524.28;;;6.93;100.00
33781;BME280;20097;50.832;19.100;2023-05-07T00:28:17;98519.38;;;6.90;100.00
33781;BME280;20097;50.832;19.100;2023-05-07T00:33:21;98516.34;;;6.95;100.00
33781;BME280;20097;50.832;19.100;2023-05-07T00:38:26;98517.72;;;6.89;100.00
33781;BME280;20097;50.832;19.100;2023-05-07T00:43:31;98524.97;;;6.95;100.00
33781;BME280;20097;50.832;19.100;2023-05-07T00:48:35;98525.81;;;6.86;100.00
33781;BME280;20097;50.832;19.100;2023-05-07T00:53:41;98534.50;;;6.95;100.00
33781;BME280;20097;50.832;19.100;2023-05-07T00:58:45;98535.03;;;6.98;100.00
33781;BME280;20097;50.832;19.100;2023-05-07T01:03:49;98535.41;;;6.86;100.00
33781;BME280;20097;50.832;19.100;2023-05-07T01:08:55;98545.34;;;6.90;100.00
33781;BME280;20097;50.832;19.100;2023-05-07T01:13:59;98547.09;;;6.90;100.00
33781;BME280;20097;50.832;19.100;2023-05-07T01:19:04;98541.13;;;6.80;100.00
33781;BME280;20097;50.832;19.100;2023-05-07T01:24:10;98550.75;;;6.70;100.00
33781;BME280;20097;50.832;19.100;2023-05-07T01:29:14;98556.47;;;6.73;100.00
33781;BME280;20097;50.832;19.100;2023-05-07T01:34:20;98553.06;;;6.73;100.00
33781;BME280;20097;50.832;19.100;2023-05-07T01:39:28;98553.22;;;6.71;100.00
33781;BME280;20097;50.832;19.100;2023-05-07T01:44:32;98566.97;;;6.72;100.00
33781;BME280;20097;50.832;19.100;2023-05-07T01:49:37;98561.44;;;6.57;100.00
33781;BME280;20097;50.832;19.100;2023-05-07T01:54:43;98564.72;;;6.59;100.00
33781;BME280;20097;50.832;19.100;2023-05-07T01:59:47;98570.88;;;6.58;100.00
33781;BME280;20097;50.832;19.100;2023-05-07T02:04:51;98565.72;;;6.39;100.00
33781;BME280;20097;50.832;19.100;2023-05-07T02:09:58;98567.38;;;6.40;100.00
33781;BME280;20097;50.832;19.100;2023-05-07T02:15:02;98561.66;;;6.37;100.00
33781;BME280;20097;50.832;19.100;2023-05-07T02:20:08;98571.78;;;6.21;100.00
33781;BME280;20097;50.832;19.100;2023-05-07T02:25:18;98572.47;;;6.23;100.00
33781;BME280;20097;50.832;19.100;2023-05-07T02:30:22;98572.22;;;6.16;100.00
33781;BME280;20097;50.832;19.100;2023-05-07T02:35:30;98570.44;;;6.07;100.00
33781;BME280;20097;50.832;19.100;2023-05-07T02:40:36;98572.50;;;5.94;100.00
33781;BME280;20097;50.832;19.100;2023-05-07T02:45:42;98577.25;;;5.99;100.00
33781;BME280;20097;50.832;19.100;2023-05-07T02:50:47;98571.56;;;5.95;100.00
33781;BME280;20097;50.832;19.100;2023-05-07T02:55:53;98572.63;;;5.93;100.00
33781;BME280;20097;50.832;19.100;2023-05-07T03:00:57;98573.03;;;5.79;100.00
33781;BME280;20097;50.832;19.100;2023-05-07T03:06:22;98575.72;;;5.68;100.00
33781;BME280;20097;50.832;19.100;2023-05-07T03:11:27;98566.63;;;5.63;100.00
33781;BME280;20097;50.832;19.100;2023-05-07T03:16:31;98563.88;;;5.46;100.00
33781;BME280;20097;50.832;19.100;2023-05-07T03:21:35;98577.13;;;5.52;100.00
33781;BME280;20097;50.832;19.100;2023-05-07T03:26:41;98589.22;;;5.52;100.00
33781;BME280;20097;50.832;19.100;2023-05-07T03:31:45;98606.38;;;5.53;100.00
33781;BME280;20097;50.832;19.100;2023-05-07T03:36:49;98611.56;;;5.53;100.00
33781;BME280;20097;50.832;19.100;2023-05-07T03:41:56;98612.09;;;5.47;100.00
33781;BME280;20097;50.832;19.100;2023-05-07T03:47:00;98625.06;;;5.56;100.00
33781;BME280;20097;50.832;19.100;2023-05-07T03:52:04;98633.38;;;5.60;100.00
33781;BME280;20097;50.832;19.100;2023-05-07T03:57:10;98629.28;;;5.48;100.00
33781;BME280;20097;50.832;19.100;2023-05-07T04:02:15;98637.84;;;5.48;100.00
33781;BME280;20097;50.832;19.100;2023-05-07T04:07:19;98645.34;;;5.42;100.00
33781;BME280;20097;50.832;19.100;2023-05-07T04:12:26;98655.19;;;5.48;100.00
33781;BME280;20097;50.832;19.100;2023-05-07T04:17:31;98664.56;;;5.49;100.00
33781;BME280;20097;50.832;19.100;2023-05-07T04:22:36;98667.94;;;5.40;100.00
33781;BME280;20097;50.832;19.100;2023-05-07T04:27:42;98673.13;;;5.40;100.00
33781;BME280;20097;50.832;19.100;2023-05-07T04:32:47;98682.81;;;5.38;100.00
33781;BME280;20097;50.832;19.100;2023-05-07T04:37:52;98681.84;;;5.39;100.00
33781;BME280;20097;50.832;19.100;2023-05-07T04:42:57;98686.88;;;5.40;100.00
33781;BME280;20097;50.832;19.100;2023-05-07T04:48:03;98697.81;;;5.44;100.00
33781;BME280;20097;50.832;19.100;2023-05-07T04:53:08;98706.25;;;5.46;100.00
33781;BME280;20097;50.832;19.100;2023-05-07T04:58:14;98711.00;;;5.41;100.00
33781;BME280;20097;50.832;19.100;2023-05-07T05:03:21;98710.44;;;5.37;100.00
33781;BME280;20097;50.832;19.100;2023-05-07T05:08:25;98710.47;;;5.47;100.00
33781;BME280;20097;50.832;19.100;2023-05-07T05:13:31;98725.47;;;5.53;100.00
33781;BME280;20097;50.832;19.100;2023-05-07T05:18:39;98731.06;;;5.48;100.00
33781;BME280;20097;50.832;19.100;2023-05-07T05:23:45;98734.22;;;5.52;100.00
33781;BME280;20097;50.832;19.100;2023-05-07T05:28:55;98739.16;;;5.64;100.00
33781;BME280;20097;50.832;19.100;2023-05-07T05:34:01;98747.75;;;5.75;100.00
33781;BME280;20097;50.832;19.100;2023-05-07T05:39:07;98756.09;;;5.78;100.00
33781;BME280;20097;50.832;19.100;2023-05-07T05:44:13;98759.09;;;5.74;100.00
33781;BME280;20097;50.832;19.100;2023-05-07T05:49:18;98770.19;;;5.85;100.00
33781;BME280;20097;50.832;19.100;2023-05-07T05:54:22;98772.13;;;5.93;100.00
33781;BME280;20097;50.832;19.100;2023-05-07T05:59:28;98769.78;;;5.90;100.00
33781;BME280;20097;50.832;19.100;2023-05-07T06:04:33;98777.59;;;5.99;100.00
33781;BME280;20097;50.832;19.100;2023-05-07T06:09:38;98777.16;;;5.94;100.00
33781;BME280;20097;50.832;19.100;2023-05-07T06:14:44;98782.75;;;5.99;100.00
33781;BME280;20097;50.832;19.100;2023-05-07T06:19:49;98793.38;;;5.87;100.00
33781;BME280;20097;50.832;19.100;2023-05-07T06:24:55;98795.69;;;5.90;100.00
33781;BME280;20097;50.832;19.100;2023-05-07T06:30:01;98799.63;;;5.84;100.00
33781;BME280;20097;50.832;19.100;2023-05-07T06:35:06;98805.78;;;5.83;100.00
33781;BME280;20097;50.832;19.100;2023-05-07T06:40:13;98800.06;;;5.99;100.00
33781;BME280;20097;50.832;19.100;2023-05-07T06:45:19;98806.19;;;5.88;100.00
33781;BME280;20097;50.832;19.100;2023-05-07T06:50:23;98803.50;;;5.99;100.00
33781;BME280;20097;50.832;19.100;2023-05-07T06:55:31;98816.31;;;6.01;100.00
33781;BME280;20097;50.832;19.100;2023-05-07T07:00:37;98820.16;;;6.06;100.00
33781;BME280;20097;50.832;19.100;2023-05-07T07:05:41;98819.59;;;6.03;100.00
33781;BME280;20097;50.832;19.100;2023-05-07T07:10:45;98825.63;;;6.13;100.00
33781;BME280;20097;50.832;19.100;2023-05-07T07:15:51;98834.38;;;6.21;100.00
33781;BME280;20097;50.832;19.100;2023-05-07T07:20:55;98833.69;;;6.19;100.00
33781;BME280;20097;50.832;19.100;2023-05-07T07:26:00;98838.09;;;6.38;100.00
33781;BME280;20097;50.832;19.100;2023-05-07T07:31:05;98835.91;;;6.43;100.00
33781;BME280;20097;50.832;19.100;2023-05-07T07:36:10;98839.88;;;6.47;100.00
33781;BME280;20097;50.832;19.100;2023-05-07T07:41:14;98841.78;;;6.35;100.00
33781;BME280;20097;50.832;19.100;2023-05-07T07:46:20;98836.03;;;6.41;100.00
33781;BME280;20097;50.832;19.100;2023-05-07T07:51:24;98849.16;;;6.59;100.00
33781;BME280;20097;50.832;19.100;2023-05-07T07:56:29;98861.34;;;6.77;100.00
33781;BME280;20097;50.832;19.100;2023-05-07T08:01:34;98868.72;;;6.72;100.00
33781;BME280;20097;50.832;19.100;2023-05-07T08:06:39;98868.00;;;6.51;100.00
33781;BME280;20097;50.832;19.100;2023-05-07T08:11:44;98878.50;;;6.50;100.00
33781;BME280;20097;50.832;19.100;2023-05-07T08:16:50;98887.69;;;6.63;100.00
33781;BME280;20097;50.832;19.100;2023-05-07T08:21:55;98889.03;;;6.48;100.00
33781;BME280;20097;50.832;19.100;2023-05-07T08:27:00;98890.28;;;6.63;100.00
33781;BME280;20097;50.832;19.100;2023-05-07T08:32:06;98895.50;;;6.82;100.00
33781;BME280;20097;50.832;19.100;2023-05-07T08:37:10;98900.41;;;7.14;100.00
33781;BME280;20097;50.832;19.100;2023-05-07T08:42:15;98910.78;;;6.95;100.00
33781;BME280;20097;50.832;19.100;2023-05-07T08:47:22;98916.66;;;6.87;100.00
33781;BME280;20097;50.832;19.100;2023-05-07T08:52:27;98926.91;;;6.79;100.00
33781;BME280;20097;50.832;19.100;2023-05-07T08:57:32;98931.41;;;6.87;100.00
33781;BME280;20097;50.832;19.100;2023-05-07T09:02:37;98936.19;;;7.01;100.00
33781;BME280;20097;50.832;19.100;2023-05-07T09:07:43;98940.72;;;6.99;100.00
33781;BME280;20097;50.832;19.100;2023-05-07T09:12:50;98941.78;;;6.87;100.00
33781;BME280;20097;50.832;19.100;2023-05-07T09:17:59;98939.19;;;6.87;100.00
33781;BME280;20097;50.832;19.100;2023-05-07T09:23:05;98944.94;;;6.90;100.00
33781;BME280;20097;50.832;19.100;2023-05-07T09:28:12;98949.84;;;6.84;100.00
33781;BME280;20097;50.832;19.100;2023-05-07T09:33:18;98959.38;;;6.83;100.00
33781;BME280;20097;50.832;19.100;2023-05-07T09:38:26;98958.81;;;6.70;100.00
33781;BME280;20097;50.832;19.100;2023-05-07T09:43:34;98961.56;;;6.88;100.00
33781;BME280;20097;50.832;19.100;2023-05-07T09:48:43;98967.31;;;7.01;100.00
33781;BME280;20097;50.832;19.100;2023-05-07T09:53:48;98968.28;;;7.00;100.00
33781;BME280;20097;50.832;19.100;2023-05-07T09:58:52;98973.91;;;7.15;100.00
33781;BME280;20097;50.832;19.100;2023-05-07T10:04:01;98972.94;;;7.06;100.00
33781;BME280;20097;50.832;19.100;2023-05-07T10:09:07;98982.53;;;7.06;100.00
33781;BME280;20097;50.832;19.100;2023-05-07T10:14:13;98987.53;;;6.88;100.00
33781;BME280;20097;50.832;19.100;2023-05-07T10:19:20;98982.94;;;7.11;100.00
33781;BME280;20097;50.832;19.100;2023-05-07T10:24:32;98992.63;;;7.18;100.00
33781;BME280;20097;50.832;19.100;2023-05-07T10:29:42;98996.72;;;7.11;100.00
33781;BME280;20097;50.832;19.100;2023-05-07T10:34:50;99003.44;;;7.14;100.00
33781;BME280;20097;50.832;19.100;2023-05-07T10:39:57;99004.38;;;7.13;100.00
33781;BME280;20097;50.832;19.100;2023-05-07T10:45:13;99005.06;;;7.43;100.00
33781;BME280;20097;50.832;19.100;2023-05-07T10:50:23;99005.78;;;7.74;100.00
33781;BME280;20097;50.832;19.100;2023-05-07T10:55:34;99010.84;;;7.66;100.00
33781;BME280;20097;50.832;19.100;2023-05-07T11:00:44;99007.97;;;7.59;100.00
33781;BME280;20097;50.832;19.100;2023-05-07T11:06:10;99002.63;;;7.61;100.00
33781;BME280;20097;50.832;19.100;2023-05-07T11:11:50;99019.97;;;7.70;100.00
33781;BME280;20097;50.832;19.100;2023-05-07T11:17:08;99015.44;;;7.91;100.00
33781;BME280;20097;50.832;19.100;2023-05-07T11:22:37;99023.38;;;7.99;100.00
33781;BME280;20097;50.832;19.100;2023-05-07T11:27:54;99028.03;;;7.86;100.00
33781;BME280;20097;50.832;19.100;2023-05-07T11:33:00;99042.56;;;7.79;100.00
33781;BME280;20097;50.832;19.100;2023-05-07T11:38:06;99049.06;;;8.02;100.00
33781;BME280;20097;50.832;19.100;2023-05-07T11:43:11;99060.84;;;8.25;100.00
33781;BME280;20097;50.832;19.100;2023-05-07T11:48:16;99059.16;;;8.43;100.00
33781;BME280;20097;50.832;19.100;2023-05-07T11:53:24;99053.88;;;8.62;100.00
33781;BME280;20097;50.832;19.100;2023-05-07T11:58:29;99055.53;;;8.63;100.00
33781;BME280;20097;50.832;19.100;2023-05-07T12:03:32;99061.03;;;8.51;100.00
33781;BME280;20097;50.832;19.100;2023-05-07T12:08:40;99060.16;;;8.23;100.00
33781;BME280;20097;50.832;19.100;2023-05-07T12:13:48;99065.66;;;8.01;100.00
33781;BME280;20097;50.832;19.100;2023-05-07T12:18:52;99077.00;;;7.71;100.00
33781;BME280;20097;50.832;19.100;2023-05-07T12:23:59;99067.41;;;8.10;100.00
33781;BME280;20097;50.832;19.100;2023-05-07T12:29:03;99078.91;;;8.26;100.00
33781;BME280;20097;50.832;19.100;2023-05-07T12:34:07;99091.09;;;7.97;100.00
33781;BME280;20097;50.832;19.100;2023-05-07T12:39:13;99085.22;;;8.14;100.00
33781;BME280;20097;50.832;19.100;2023-05-07T12:44:17;99091.63;;;8.39;100.00
33781;BME280;20097;50.832;19.100;2023-05-07T12:49:22;99083.97;;;8.74;100.00
33781;BME280;20097;50.832;19.100;2023-05-07T12:54:29;99095.81;;;9.23;100.00
33781;BME280;20097;50.832;19.100;2023-05-07T12:59:35;99099.31;;;9.76;100.00
33781;BME280;20097;50.832;19.100;2023-05-07T13:04:40;99088.13;;;9.66;100.00
33781;BME280;20097;50.832;19.100;2023-05-07T13:09:46;99083.63;;;9.23;100.00
33781;BME280;20097;50.832;19.100;2023-05-07T13:14:50;99090.53;;;9.77;100.00
33781;BME280;20097;50.832;19.100;2023-05-07T13:19:54;99096.41;;;9.97;100.00
33781;BME280;20097;50.832;19.100;2023-05-07T13:24:59;99107.81;;;9.06;100.00
33781;BME280;20097;50.832;19.100;2023-05-07T13:30:05;99101.09;;;8.30;100.00
33781;BME280;20097;50.832;19.100;2023-05-07T13:35:09;99105.06;;;8.25;100.00
33781;BME280;20097;50.832;19.100;2023-05-07T13:40:15;99108.63;;;8.14;100.00
33781;BME280;20097;50.832;19.100;2023-05-07T13:45:19;99114.50;;;8.36;100.00
33781;BME280;20097;50.832;19.100;2023-05-07T13:50:24;99111.19;;;8.43;100.00
33781;BME280;20097;50.832;19.100;2023-05-07T13:55:31;99109.81;;;8.20;100.00
33781;BME280;20097;50.832;19.100;2023-05-07T14:00:35;99123.38;;;8.04;100.00
33781;BME280;20097;50.832;19.100;2023-05-07T14:05:39;99122.44;;;7.86;100.00
33781;BME280;20097;50.832;19.100;2023-05-07T14:10:44;99118.28;;;7.55;100.00
33781;BME280;20097;50.832;19.100;2023-05-07T14:15:48;99126.00;;;7.95;100.00
33781;BME280;20097;50.832;19.100;2023-05-07T14:20:52;99130.91;;;8.17;100.00
33781;BME280;20097;50.832;19.100;2023-05-07T14:25:57;99142.94;;;7.99;100.00
33781;BME280;20097;50.832;19.100;2023-05-07T14:31:01;99151.03;;;7.96;100.00
33781;BME280;20097;50.832;19.100;2023-05-07T14:36:06;99153.31;;;7.61;100.00
33781;BME280;20097;50.832;19.100;2023-05-07T14:41:11;99152.91;;;7.56;100.00
33781;BME280;20097;50.832;19.100;2023-05-07T14:46:16;99148.97;;;7.80;100.00
33781;BME280;20097;50.832;19.100;2023-05-07T14:51:20;99156.34;;;7.94;100.00
33781;BME280;20097;50.832;19.100;2023-05-07T14:56:26;99159.22;;;8.01;100.00
33781;BME280;20097;50.832;19.100;2023-05-07T15:01:30;99160.63;;;8.05;100.00
33781;BME280;20097;50.832;19.100;2023-05-07T15:06:34;99164.16;;;7.85;100.00
33781;BME280;20097;50.832;19.100;2023-05-07T15:11:40;99158.53;;;7.89;100.00
33781;BME280;20097;50.832;19.100;2023-05-07T15:16:44;99166.47;;;7.78;100.00
33781;BME280;20097;50.832;19.100;2023-05-07T15:21:48;99169.19;;;7.77;100.00
33781;BME280;20097;50.832;19.100;2023-05-07T15:26:53;99177.66;;;7.69;100.00
33781;BME280;20097;50.832;19.100;2023-05-07T15:31:57;99178.91;;;7.75;100.00
33781;BME280;20097;50.832;19.100;2023-05-07T15:37:01;99175.84;;;7.51;100.00
33781;BME280;20097;50.832;19.100;2023-05-07T15:42:06;99176.50;;;7.43;100.00
33781;BME280;20097;50.832;19.100;2023-05-07T15:47:10;99183.41;;;7.73;100.00
33781;BME280;20097;50.832;19.100;2023-05-07T15:52:17;99185.59;;;7.68;100.00
33781;BME280;20097;50.832;19.100;2023-05-07T15:57:22;99183.00;;;7.77;100.00
33781;BME280;20097;50.832;19.100;2023-05-07T16:02:26;99187.53;;;7.75;100.00
33781;BME280;20097;50.832;19.100;2023-05-07T16:07:31;99185.88;;;7.84;100.00
33781;BME280;20097;50.832;19.100;2023-05-07T16:12:36;99190.53;;;7.71;100.00
33781;BME280;20097;50.832;19.100;2023-05-07T16:17:40;99193.50;;;7.57;100.00
33781;BME280;20097;50.832;19.100;2023-05-07T16:22:44;99180.22;;;7.50;100.00
33781;BME280;20097;50.832;19.100;2023-05-07T16:27:51;99186.09;;;7.52;100.00
33781;BME280;20097;50.832;19.100;2023-05-07T16:32:55;99184.72;;;7.48;100.00
33781;BME280;20097;50.832;19.100;2023-05-07T16:38:00;99190.19;;;7.55;100.00
33781;BME280;20097;50.832;19.100;2023-05-07T16:43:12;99191.44;;;7.51;100.00
33781;BME280;20097;50.832;19.100;2023-05-07T16:48:16;99194.31;;;7.48;100.00
33781;BME280;20097;50.832;19.100;2023-05-07T16:53:23;99196.78;;;7.49;100.00
33781;BME280;20097;50.832;19.100;2023-05-07T16:58:28;99199.47;;;7.38;100.00
33781;BME280;20097;50.832;19.100;2023-05-07T17:03:32;99205.72;;;7.36;100.00
33781;BME280;20097;50.832;19.100;2023-05-07T17:08:36;99207.38;;;7.37;100.00
33781;BME280;20097;50.832;19.100;2023-05-07T17:13:45;99206.25;;;7.30;100.00
33781;BME280;20097;50.832;19.100;2023-05-07T17:18:49;99211.72;;;7.27;100.00
33781;BME280;20097;50.832;19.100;2023-05-07T17:23:53;99210.94;;;7.36;100.00
33781;BME280;20097;50.832;19.100;2023-05-07T17:28:58;99212.53;;;7.27;100.00
33781;BME280;20097;50.832;19.100;2023-05-07T17:34:02;99221.28;;;7.26;100.00
33781;BME280;20097;50.832;19.100;2023-05-07T17:39:06;99226.47;;;7.26;100.00
33781;BME280;20097;50.832;19.100;2023-05-07T17:44:12;99233.97;;;7.20;100.00
33781;BME280;20097;50.832;19.100;2023-05-07T17:49:16;99240.88;;;7.10;100.00
33781;BME280;20097;50.832;19.100;2023-05-07T17:54:20;99249.09;;;7.15;100.00
33781;BME280;20097;50.832;19.100;2023-05-07T17:59:27;99252.22;;;7.09;100.00
33781;BME280;20097;50.832;19.100;2023-05-07T18:04:32;99249.09;;;7.15;100.00
33781;BME280;20097;50.832;19.100;2023-05-07T18:09:36;99256.44;;;7.10;100.00
33781;BME280;20097;50.832;19.100;2023-05-07T18:14:41;99260.75;;;6.99;100.00
33781;BME280;20097;50.832;19.100;2023-05-07T18:19:45;99256.56;;;7.08;100.00
33781;BME280;20097;50.832;19.100;2023-05-07T18:24:50;99254.38;;;7.04;100.00
33781;BME280;20097;50.832;19.100;2023-05-07T18:29:56;99266.47;;;6.93;100.00
33781;BME280;20097;50.832;19.100;2023-05-07T18:35:00;99262.91;;;6.94;100.00
33781;BME280;20097;50.832;19.100;2023-05-07T18:40:05;99269.44;;;6.89;100.00
33781;BME280;20097;50.832;19.100;2023-05-07T18:45:11;99271.22;;;6.88;100.00
33781;BME280;20097;50.832;19.100;2023-05-07T18:50:15;99281.84;;;6.85;100.00
33781;BME280;20097;50.832;19.100;2023-05-07T18:55:19;99291.97;;;6.88;100.00
33781;BME280;20097;50.832;19.100;2023-05-07T19:00:25;99298.59;;;6.81;100.00
33781;BME280;20097;50.832;19.100;2023-05-07T19:05:29;99302.72;;;6.84;100.00
33781;BME280;20097;50.832;19.100;2023-05-07T19:10:33;99311.97;;;6.77;100.00
33781;BME280;20097;50.832;19.100;2023-05-07T19:15:39;99305.19;;;6.85;100.00
33781;BME280;20097;50.832;19.100;2023-05-07T19:20:43;99307.22;;;6.82;100.00
33781;BME280;20097;50.832;19.100;2023-05-07T19:25:48;99322.00;;;6.70;100.00
33781;BME280;20097;50.832;19.100;2023-05-07T19:30:53;99331.84;;;6.87;100.00
33781;BME280;20097;50.832;19.100;2023-05-07T19:35:58;99317.03;;;6.78;100.00
33781;BME280;20097;50.832;19.100;2023-05-07T19:41:03;99313.03;;;6.74;100.00
33781;BME280;20097;50.832;19.100;2023-05-07T19:46:09;99316.50;;;6.64;100.00
33781;BME280;20097;50.832;19.100;2023-05-07T19:51:13;99318.47;;;6.40;100.00
33781;BME280;20097;50.832;19.100;2023-05-07T19:56:17;99315.00;;;6.19;100.00
33781;BME280;20097;50.832;19.100;2023-05-07T20:01:23;99311.84;;;6.04;100.00
33781;BME280;20097;50.832;19.100;2023-05-07T20:06:27;99313.72;;;6.02;100.00
33781;BME280;20097;50.832;19.100;2023-05-07T20:11:31;99324.72;;;5.84;100.00
33781;BME280;20097;50.832;19.100;2023-05-07T20:16:37;99318.56;;;5.74;100.00
33781;BME280;20097;50.832;19.100;2023-05-07T20:21:41;99320.19;;;5.52;100.00
33781;BME280;20097;50.832;19.100;2023-05-07T20:26:45;99324.19;;;5.34;100.00
33781;BME280;20097;50.832;19.100;2023-05-07T20:31:51;99327.69;;;5.22;100.00
33781;BME280;20097;50.832;19.100;2023-05-07T20:36:54;99322.25;;;5.14;100.00
33781;BME280;20097;50.832;19.100;2023-05-07T20:41:58;99333.56;;;5.13;100.00
33781;BME280;20097;50.832;19.100;2023-05-07T20:47:04;99334.81;;;5.08;100.00
33781;BME280;20097;50.832;19.100;2023-05-07T20:52:08;99336.56;;;4.96;100.00
33781;BME280;20097;50.832;19.100;2023-05-07T20:57:13;99342.19;;;4.90;100.00
33781;BME280;20097;50.832;19.100;2023-05-07T21:02:19;99349.06;;;4.79;100.00
33781;BME280;20097;50.832;19.100;2023-05-07T21:07:23;99357.41;;;4.71;100.00
33781;BME280;20097;50.832;19.100;2023-05-07T21:12:27;99359.34;;;4.57;100.00
33781;BME280;20097;50.832;19.100;2023-05-07T21:17:33;99356.88;;;4.43;100.00
33781;BME280;20097;50.832;19.100;2023-05-07T21:22:37;99356.78;;;4.20;100.00
33781;BME280;20097;50.832;19.100;2023-05-07T21:27:41;99368.47;;;4.13;100.00
33781;BME280;20097;50.832;19.100;2023-05-07T21:32:47;99361.31;;;4.17;100.00
33781;BME280;20097;50.832;19.100;2023-05-07T21:37:51;99355.94;;;4.20;100.00
33781;BME280;20097;50.832;19.100;2023-05-07T21:42:55;99355.72;;;4.23;100.00
33781;BME280;20097;50.832;19.100;2023-05-07T21:48:00;99356.09;;;4.30;100.00
33781;BME280;20097;50.832;19.100;2023-05-07T21:53:05;99359.84;;;4.26;100.00
33781;BME280;20097;50.832;19.100;2023-05-07T21:58:09;99359.03;;;4.25;100.00
33781;BME280;20097;50.832;19.100;2023-05-07T22:03:15;99354.91;;;4.22;100.00
33781;BME280;20097;50.832;19.100;2023-05-07T22:08:19;99356.78;;;4.20;100.00
33781;BME280;20097;50.832;19.100;2023-05-07T22:13:23;99359.78;;;4.14;100.00
33781;BME280;20097;50.832;19.100;2023-05-07T22:18:29;99361.25;;;4.06;100.00
33781;BME280;20097;50.832;19.100;2023-05-07T22:23:33;99364.69;;;4.06;100.00
33781;BME280;20097;50.832;19.100;2023-05-07T22:28:37;99355.47;;;4.02;100.00
33781;BME280;20097;50.832;19.100;2023-05-07T22:33:43;99350.53;;;3.99;100.00
33781;BME280;20097;50.832;19.100;2023-05-07T22:38:47;99355.50;;;3.90;100.00
33781;BME280;20097;50.832;19.100;2023-05-07T22:43:51;99354.34;;;3.94;100.00
33781;BME280;20097;50.832;19.100;2023-05-07T22:48:56;99355.63;;;3.88;100.00
33781;BME280;20097;50.832;19.100;2023-05-07T22:54:00;99356.63;;;3.86;100.00
33781;BME280;20097;50.832;19.100;2023-05-07T22:59:05;99349.22;;;3.81;100.00
33781;BME280;20097;50.832;19.100;2023-05-07T23:04:11;99351.28;;;3.76;100.00
33781;BME280;20097;50.832;19.100;2023-05-07T23:09:15;99344.88;;;3.82;100.00
33781;BME280;20097;50.832;19.100;2023-05-07T23:14:19;99344.06;;;3.69;100.00
33781;BME280;20097;50.832;19.100;2023-05-07T23:19:27;99351.09;;;3.67;100.00
33781;BME280;20097;50.832;19.100;2023-05-07T23:24:31;99349.44;;;3.66;100.00
33781;BME280;20097;50.832;19.100;2023-05-07T23:29:36;99350.47;;;3.63;100.00
33781;BME280;20097;50.832;19.100;2023-05-07T23:34:42;99345.72;;;3.57;100.00
33781;BME280;20097;50.832;19.100;2023-05-07T23:39:46;99344.16;;;3.55;100.00
33781;BME280;20097;50.832;19.100;2023-05-07T23:44:50;99340.88;;;3.53;100.00
33781;BME280;20097;50.832;19.100;2023-05-07T23:49:56;99342.13;;;3.47;100.00
33781;BME280;20097;50.832;19.100;2023-05-07T23:55:00;99340.75;;;3.42;100.00
